Terminal Aerodrome Forecast
Issued by NWS

Home | Current Version | Previous Version | Graphics & Text | Print | Product List | Glossary On
Versions: 1 2 3 4 5 6 7 8 9 10 11 12 13 14 15 16 17 18 19 20 21 22 23 24 25 26 27 28
895
FTUS43 KLOT 071137
TAFORD
TAF
KORD 071137Z 0712/0818 26013G19KT P6SM FEW020 BKN150
     FM071600 25014G21KT P6SM BKN018 OVC100
     FM080000 27011G18KT P6SM BKN015
     FM081200 28014G22KT P6SM BKN015=

USA.gov is the U.S. government's official web portal to all federal, state and local government web resources and services.